Terminal Aerodrome Forecast
Issued by NWS

Home | Current Version | Previous Version | Text Only | Print | Product List | Glossary On
Versions: 1 2 3 4 5 6 7 8 9 10 11 12 13 14 15 16 17 18 19 20 21 22 23 24 25 26 27 28 29 30 31 32 33 34 35 36 37 38 39 40 41 42 43 44 45 46 47 48 49
000
FTUS43 KMKX 260934 AAB
TAFENW
TAF AMD
KENW 260934Z 2610/2706 20008KT P6SM FEW010 WS020/21045KT
     FM261200 20009KT 6SM BR SCT010
     FM261400 18009KT P6SM VCTS SCT035CB BKN140
     FM261800 16011KT 3SM SHRA VCTS SCT040CB OVC070
     FM262000 16011G18KT 5SM SHRA VCTS BKN040CB
     FM270000 20011KT 5SM BR BKN040=

USA.gov is the U.S. government's official web portal to all federal, state and local government web resources and services.